createdAt,value
2022-10-23T00:01:50.216Z,17.70
2022-10-23T00:04:20.608Z,17.20
2022-10-23T00:06:50.164Z,18.73
2022-10-23T00:09:20.844Z,16.30
2022-10-23T00:11:50.754Z,18.27
2022-10-23T00:14:21.387Z,16.63
2022-10-23T00:16:51.754Z,19.27
2022-10-23T00:19:20.374Z,18.50
2022-10-23T00:21:48.894Z,17.13
2022-10-23T00:24:17.457Z,16.73
2022-10-23T00:26:46.491Z,18.00
2022-10-23T00:29:18.047Z,17.37
2022-10-23T00:31:46.735Z,16.23
2022-10-23T00:34:16.605Z,17.73
2022-10-23T00:36:46.057Z,16.13
2022-10-23T00:39:14.860Z,17.03
2022-10-23T00:41:43.801Z,14.93
2022-10-23T00:44:50.664Z,16.30
2022-10-23T00:47:19.773Z,16.77
2022-10-23T00:49:49.762Z,16.50
2022-10-23T00:52:18.366Z,16.30
2022-10-23T00:54:47.009Z,14.50
2022-10-23T00:57:16.803Z,17.03
2022-10-23T00:59:45.955Z,19.27
2022-10-23T01:02:15.847Z,17.50
2022-10-23T01:04:45.429Z,17.63
2022-10-23T01:07:24.037Z,16.97
2022-10-23T01:09:58.511Z,18.83
2022-10-23T01:12:34.174Z,17.17
2022-10-23T01:15:09.073Z,18.13
2022-10-23T01:17:44.456Z,16.67
2022-10-23T01:20:29.276Z,16.17
2022-10-23T01:23:33.937Z,16.37
2022-10-23T01:26:20.114Z,16.00
2022-10-23T01:28:54.570Z,18.27
2022-10-23T01:31:28.851Z,18.20
2022-10-23T01:34:04.739Z,17.33
2022-10-23T01:36:34.760Z,17.77
2022-10-23T01:39:07.121Z,16.33
2022-10-23T01:41:42.761Z,16.73
2022-10-23T01:44:18.234Z,15.33
2022-10-23T01:46:50.547Z,16.53
2022-10-23T01:49:21.196Z,16.47
2022-10-23T01:51:54.478Z,16.23
2022-10-23T01:54:27.042Z,15.80
2022-10-23T01:56:57.026Z,18.07
2022-10-23T01:59:32.126Z,15.77
2022-10-23T02:02:02.800Z,16.73
2022-10-23T02:04:34.972Z,18.07
2022-10-23T02:07:03.821Z,14.40
2022-10-23T02:09:33.313Z,16.87
2022-10-23T02:12:09.883Z,16.83
2022-10-23T02:14:51.758Z,15.30
2022-10-23T02:17:27.858Z,16.20
2022-10-23T02:20:03.883Z,15.57
2022-10-23T02:22:39.586Z,15.53
2022-10-23T02:25:14.440Z,15.87
2022-10-23T02:27:47.740Z,13.87
2022-10-23T02:30:19.991Z,16.63
2022-10-23T02:32:51.367Z,13.83
2022-10-23T02:35:24.529Z,13.37
2022-10-23T02:37:55.433Z,14.63
2022-10-23T02:40:25.292Z,16.27
2022-10-23T02:42:59.355Z,14.37
2022-10-23T02:45:33.726Z,15.27
2022-10-23T02:48:09.789Z,14.10
2022-10-23T02:50:45.595Z,14.20
2022-10-23T02:53:19.383Z,15.23
2022-10-23T02:55:59.233Z,14.23
2022-10-23T02:58:31.728Z,15.03
2022-10-23T03:01:07.004Z,18.00
2022-10-23T03:03:41.301Z,15.37
2022-10-23T03:06:10.243Z,14.87
2022-10-23T03:08:53.753Z,14.90
2022-10-23T03:11:22.389Z,15.70
2022-10-23T03:13:50.980Z,16.83
2022-10-23T03:16:20.903Z,15.03
2022-10-23T03:18:49.425Z,15.50
2022-10-23T03:21:18.042Z,14.20
2022-10-23T03:23:46.682Z,13.57
2022-10-23T03:26:15.878Z,16.03
2022-10-23T03:28:44.636Z,17.53
2022-10-23T03:31:13.807Z,13.47
2022-10-23T03:33:44.282Z,15.87
2022-10-23T03:36:13.196Z,14.00
2022-10-23T03:38:41.879Z,14.80
2022-10-23T03:41:10.477Z,15.43
2022-10-23T03:43:39.104Z,15.10
2022-10-23T03:46:12.883Z,14.37
2022-10-23T03:48:43.927Z,12.57
2022-10-23T03:51:12.980Z,14.47
2022-10-23T03:53:41.520Z,11.90
2022-10-23T03:56:10.196Z,15.60
2022-10-23T03:58:38.733Z,14.27
2022-10-23T04:01:07.331Z,14.90
2022-10-23T04:03:35.999Z,15.00
2022-10-23T04:06:06.160Z,14.87
2022-10-23T04:08:34.824Z,12.67
2022-10-23T04:11:03.681Z,15.20
2022-10-23T04:13:32.374Z,15.97
2022-10-23T04:16:00.976Z,16.43
2022-10-23T04:18:29.521Z,15.67
2022-10-23T04:20:58.111Z,15.70
2022-10-23T04:23:28.006Z,14.43
2022-10-23T04:25:58.005Z,15.13
2022-10-23T04:28:27.696Z,14.33
2022-10-23T04:30:56.428Z,14.70
2022-10-23T04:33:25.046Z,16.10
2022-10-23T04:35:54.119Z,15.63
2022-10-23T04:38:22.837Z,15.17
2022-10-23T04:40:52.891Z,14.67
2022-10-23T04:43:21.511Z,14.47
2022-10-23T04:45:50.581Z,14.23
2022-10-23T04:48:19.206Z,14.43
2022-10-23T04:50:57.387Z,14.07
2022-10-23T04:53:26.671Z,12.40
2022-10-23T04:55:58.639Z,15.50
2022-10-23T04:58:28.492Z,15.40
2022-10-23T05:00:57.737Z,17.00
2022-10-23T05:03:27.493Z,13.40
2022-10-23T05:05:57.776Z,13.63
2022-10-23T05:08:26.620Z,14.77
2022-10-23T05:10:56.662Z,14.13
2022-10-23T05:13:25.298Z,14.67
2022-10-23T05:15:54.567Z,14.43
2022-10-23T05:18:27.244Z,13.60
2022-10-23T05:20:59.258Z,16.30
2022-10-23T05:23:29.214Z,13.60
2022-10-23T05:25:59.250Z,13.77
2022-10-23T05:28:27.834Z,13.87
2022-10-23T05:30:56.959Z,13.70
2022-10-23T05:33:25.718Z,12.80
2022-10-23T05:35:54.636Z,14.87
2022-10-23T05:38:23.426Z,13.53
2022-10-23T05:40:52.920Z,13.50
2022-10-23T05:43:22.954Z,13.13
2022-10-23T05:45:51.700Z,14.23
2022-10-23T05:48:34.162Z,16.07
2022-10-23T05:51:07.834Z,13.47
2022-10-23T05:53:38.893Z,14.60
2022-10-23T05:56:10.989Z,12.23
2022-10-23T05:58:40.935Z,15.03
2022-10-23T06:01:11.806Z,13.30
2022-10-23T06:03:40.827Z,14.63
2022-10-23T06:06:09.810Z,12.77
2022-10-23T06:08:38.626Z,14.27
2022-10-23T06:11:08.901Z,15.73
2022-10-23T06:13:37.734Z,12.50
2022-10-23T06:16:17.805Z,14.83
2022-10-23T06:18:47.037Z,14.10
2022-10-23T06:21:16.886Z,14.03
2022-10-23T06:23:47.139Z,15.93
2022-10-23T06:26:17.897Z,17.13
2022-10-23T06:28:46.840Z,13.30
2022-10-23T06:31:20.523Z,12.57
2022-10-23T06:33:49.153Z,13.97
2022-10-23T06:36:17.788Z,14.90
2022-10-23T06:38:46.451Z,15.03
2022-10-23T06:41:21.001Z,15.00
2022-10-23T06:43:50.446Z,15.33
2022-10-23T06:46:20.878Z,14.13
2022-10-23T06:48:50.082Z,15.17
2022-10-23T06:51:19.255Z,14.80
2022-10-23T06:53:47.940Z,15.43
2022-10-23T06:56:16.594Z,16.63
2022-10-23T06:58:48.606Z,14.47
2022-10-23T07:01:17.528Z,18.30
2022-10-23T07:03:49.505Z,14.33
2022-10-23T07:06:18.346Z,14.47
2022-10-23T07:08:46.883Z,13.13
2022-10-23T07:11:16.013Z,16.30
2022-10-23T07:13:46.610Z,15.47
2022-10-23T07:16:19.216Z,16.70
2022-10-23T07:18:50.091Z,17.07
2022-10-23T07:21:18.667Z,15.93
2022-10-23T07:23:47.234Z,17.00
2022-10-23T07:26:17.537Z,16.37
2022-10-23T07:28:47.527Z,16.00
2022-10-23T07:31:16.284Z,16.73
2022-10-23T07:33:49.325Z,15.47
2022-10-23T07:36:18.446Z,15.60
2022-10-23T07:38:47.087Z,15.13
2022-10-23T07:41:15.961Z,14.87
2022-10-23T07:43:45.536Z,15.17
2022-10-23T07:46:14.209Z,16.50
2022-10-23T07:48:43.011Z,17.10
2022-10-23T07:51:15.949Z,17.40
2022-10-23T07:53:45.606Z,15.50
2022-10-23T07:56:16.492Z,17.83
2022-10-23T07:58:45.647Z,15.10
2022-10-23T08:01:19.211Z,17.63
2022-10-23T08:03:48.180Z,16.50
2022-10-23T08:06:18.320Z,17.47
2022-10-23T08:08:47.113Z,16.77
2022-10-23T08:11:20.341Z,16.50
2022-10-23T08:13:49.059Z,16.73
2022-10-23T08:16:17.645Z,17.63
2022-10-23T08:18:47.218Z,16.30
2022-10-23T08:21:18.327Z,16.00
2022-10-23T08:23:47.137Z,16.37
2022-10-23T08:26:16.579Z,18.47
2022-10-23T08:28:45.914Z,15.40
2022-10-23T08:31:18.143Z,15.07
2022-10-23T08:33:47.009Z,16.00
2022-10-23T08:36:22.190Z,16.73
2022-10-23T08:38:52.157Z,15.97
2022-10-23T08:41:26.787Z,17.67
2022-10-23T08:44:02.803Z,15.40
2022-10-23T08:46:35.699Z,16.53
2022-10-23T08:49:17.855Z,16.87
2022-10-23T08:51:50.801Z,17.03
2022-10-23T08:54:58.818Z,17.27
2022-10-23T08:57:35.527Z,14.93
2022-10-23T09:00:08.484Z,17.77
2022-10-23T09:02:42.372Z,17.57
2022-10-23T09:05:17.791Z,15.40
2022-10-23T09:08:17.939Z,15.23
2022-10-23T09:11:05.866Z,16.67
2022-10-23T09:14:00.944Z,16.67
2022-10-23T09:16:45.063Z,15.23
2022-10-23T09:19:17.653Z,15.37
2022-10-23T09:21:49.931Z,15.97
2022-10-23T09:24:22.458Z,16.73
2022-10-23T09:26:53.149Z,17.40
2022-10-23T09:29:26.554Z,16.40
2022-10-23T09:31:57.222Z,16.13
2022-10-23T09:34:28.631Z,17.17
2022-10-23T09:36:59.316Z,15.70
2022-10-23T09:39:32.639Z,16.97
2022-10-23T09:42:02.702Z,16.97
2022-10-23T09:44:33.132Z,16.20
2022-10-23T09:47:11.258Z,17.97
2022-10-23T09:49:47.597Z,15.73
2022-10-23T09:52:29.959Z,16.27
2022-10-23T09:55:02.654Z,16.77
2022-10-23T09:57:34.035Z,15.93
2022-10-23T10:00:05.858Z,17.63
2022-10-23T10:02:36.756Z,18.20
2022-10-23T10:05:24.312Z,15.83
2022-10-23T10:07:59.429Z,16.77
2022-10-23T10:10:36.021Z,16.50
2022-10-23T10:13:14.234Z,16.20
2022-10-23T10:15:50.273Z,18.30
2022-10-23T10:18:26.177Z,15.83
2022-10-23T10:21:08.087Z,16.23
2022-10-23T10:23:46.334Z,15.83
2022-10-23T10:26:27.904Z,17.20
2022-10-23T10:29:06.374Z,16.90
2022-10-23T10:31:50.679Z,17.43
2022-10-23T10:34:29.787Z,17.20
2022-10-23T10:37:04.046Z,17.03
2022-10-23T10:39:42.922Z,16.97
2022-10-23T10:42:38.332Z,17.60
2022-10-23T10:45:19.488Z,17.30
2022-10-23T10:48:04.491Z,18.03
2022-10-23T10:50:40.296Z,17.17
2022-10-23T10:53:20.057Z,17.10
2022-10-23T10:55:52.088Z,16.60
2022-10-23T10:58:26.303Z,18.87
2022-10-23T11:01:00.033Z,16.80
2022-10-23T11:03:40.011Z,18.07
2022-10-23T11:06:17.702Z,17.83
2022-10-23T11:08:57.198Z,16.40
2022-10-23T11:11:37.135Z,17.53
2022-10-23T11:14:08.108Z,16.93
2022-10-23T11:16:40.514Z,16.00
2022-10-23T11:19:16.690Z,17.53
2022-10-23T11:21:48.743Z,17.00
2022-10-23T11:25:02.121Z,19.53
2022-10-23T11:27:48.682Z,16.97
2022-10-23T11:30:29.803Z,17.27
2022-10-23T11:33:37.071Z,16.90
2022-10-23T11:36:15.620Z,18.40
2022-10-23T11:38:46.843Z,18.07
2022-10-23T11:41:25.393Z,16.90
2022-10-23T11:43:57.151Z,16.77
2022-10-23T11:46:38.801Z,15.87
2022-10-23T11:49:20.667Z,17.40
2022-10-23T11:52:00.347Z,16.97
2022-10-23T11:54:29.091Z,16.50
2022-10-23T11:57:14.115Z,17.90
2022-10-23T11:59:53.867Z,16.60
2022-10-23T12:02:34.152Z,18.57
2022-10-23T12:05:07.354Z,18.00
2022-10-23T12:07:38.953Z,17.33
2022-10-23T12:10:19.051Z,17.43
2022-10-23T12:12:57.989Z,18.03
2022-10-23T12:15:27.613Z,16.67
2022-10-23T12:18:08.759Z,17.30
2022-10-23T12:20:45.516Z,17.23
2022-10-23T12:23:37.948Z,17.87
2022-10-23T12:26:20.289Z,18.33
2022-10-23T12:28:56.056Z,18.13
2022-10-23T12:31:37.104Z,17.07
2022-10-23T12:34:18.625Z,18.13
2022-10-23T12:37:09.859Z,17.50
2022-10-23T12:39:39.315Z,17.10
2022-10-23T12:42:16.882Z,18.10
2022-10-23T12:44:45.760Z,17.10
2022-10-23T12:47:19.722Z,17.40
2022-10-23T12:49:52.469Z,16.30
2022-10-23T12:52:24.622Z,17.23
2022-10-23T12:54:53.402Z,16.50
2022-10-23T12:57:23.820Z,17.40
2022-10-23T12:59:56.139Z,18.00
2022-10-23T13:02:26.834Z,16.40
2022-10-23T13:05:00.916Z,17.20
2022-10-23T13:07:32.838Z,17.77
2022-10-23T13:10:02.721Z,18.63
2022-10-23T13:12:33.698Z,18.53
2022-10-23T13:15:04.427Z,18.07
2022-10-23T13:17:38.805Z,17.53
2022-10-23T13:20:20.442Z,17.40
2022-10-23T13:22:56.410Z,17.20
2022-10-23T13:25:30.791Z,18.37
2022-10-23T13:28:24.763Z,17.33
2022-10-23T13:31:08.492Z,17.83
2022-10-23T13:33:39.043Z,16.37
2022-10-23T13:36:23.225Z,16.17
2022-10-23T13:39:03.413Z,16.57
2022-10-23T13:41:38.398Z,16.97
2022-10-23T13:44:07.420Z,17.73
2022-10-23T13:46:35.987Z,17.37
2022-10-23T13:49:04.632Z,17.53
2022-10-23T13:51:42.477Z,17.37
2022-10-23T13:54:16.192Z,17.43
2022-10-23T13:56:45.434Z,17.30
2022-10-23T13:59:15.373Z,17.30
2022-10-23T14:01:46.012Z,17.07
2022-10-23T14:04:15.593Z,17.47
2022-10-23T14:06:47.996Z,16.53
2022-10-23T14:09:18.439Z,16.93
2022-10-23T14:11:47.845Z,17.20
2022-10-23T14:14:16.617Z,17.03
2022-10-23T14:16:45.780Z,16.70
2022-10-23T14:19:14.490Z,17.77
2022-10-23T14:21:43.071Z,16.97
2022-10-23T14:24:13.031Z,16.20
2022-10-23T14:26:43.207Z,16.47
2022-10-23T14:29:21.273Z,17.33
2022-10-23T14:31:51.822Z,15.90
2022-10-23T14:34:20.404Z,16.83
2022-10-23T14:36:50.109Z,16.87
2022-10-23T14:39:21.034Z,17.50
2022-10-23T14:41:49.624Z,17.50
2022-10-23T14:44:18.308Z,17.87
2022-10-23T14:46:46.990Z,16.60
2022-10-23T14:49:15.831Z,17.07
2022-10-23T14:51:47.653Z,16.90
2022-10-23T14:54:16.271Z,18.30
2022-10-23T14:56:46.165Z,16.97
2022-10-23T14:59:15.323Z,16.70
2022-10-23T15:01:48.391Z,16.47
2022-10-23T15:04:17.536Z,17.40
2022-10-23T15:06:47.131Z,15.63
2022-10-23T15:09:16.369Z,16.70
2022-10-23T15:11:46.439Z,15.77
2022-10-23T15:14:15.424Z,17.27
2022-10-23T15:16:48.217Z,15.67
2022-10-23T15:19:18.563Z,17.40
2022-10-23T15:21:48.167Z,18.03
2022-10-23T15:24:16.911Z,17.40
2022-10-23T15:26:47.854Z,16.60
2022-10-23T15:29:17.175Z,16.90
2022-10-23T15:31:53.099Z,15.67
2022-10-23T15:34:24.695Z,17.47
2022-10-23T15:36:54.005Z,16.43
2022-10-23T15:39:24.623Z,16.60
2022-10-23T15:41:56.334Z,15.67
2022-10-23T15:44:27.100Z,18.07
2022-10-23T15:46:57.504Z,16.73
2022-10-23T15:49:27.171Z,16.07
2022-10-23T15:51:56.384Z,17.17
2022-10-23T15:54:28.149Z,17.50
2022-10-23T15:57:00.744Z,16.20
2022-10-23T15:59:30.373Z,15.67
2022-10-23T16:01:59.683Z,17.10
2022-10-23T16:04:29.552Z,17.83
2022-10-23T16:06:58.170Z,17.17
2022-10-23T16:09:26.903Z,17.17
2022-10-23T16:11:55.666Z,16.43
2022-10-23T16:14:25.756Z,17.67
2022-10-23T16:16:54.438Z,15.73
2022-10-23T16:19:23.065Z,16.97
2022-10-23T16:21:51.605Z,15.80
2022-10-23T16:24:20.288Z,16.77
2022-10-23T16:26:53.121Z,15.50
2022-10-23T16:29:23.696Z,16.37
2022-10-23T16:31:53.966Z,17.17
2022-10-23T16:34:23.054Z,17.10
2022-10-23T16:36:51.684Z,15.93
2022-10-23T16:39:21.115Z,16.07
2022-10-23T16:41:49.762Z,15.67
2022-10-23T16:44:18.373Z,17.30
2022-10-23T16:46:46.952Z,16.30
2022-10-23T16:49:17.464Z,17.33
2022-10-23T16:51:46.170Z,16.80
2022-10-23T16:54:17.689Z,16.53
2022-10-23T16:56:47.341Z,14.93
2022-10-23T16:59:18.749Z,16.37
2022-10-23T17:01:47.541Z,16.40
2022-10-23T17:04:17.965Z,17.83
2022-10-23T17:06:46.932Z,16.30
2022-10-23T17:09:17.031Z,15.47
2022-10-23T17:11:46.193Z,15.20
2022-10-23T17:14:18.575Z,15.53
2022-10-23T17:16:48.849Z,15.77
2022-10-23T17:19:40.203Z,15.97
2022-10-23T17:22:11.364Z,14.60
2022-10-23T17:24:40.728Z,15.70
2022-10-23T17:27:09.811Z,15.10
2022-10-23T17:29:38.475Z,14.50
2022-10-23T17:32:07.255Z,15.40
2022-10-23T17:34:37.207Z,15.33
2022-10-23T17:37:05.839Z,15.13
2022-10-23T17:39:34.507Z,15.97
2022-10-23T17:42:03.139Z,14.77
2022-10-23T17:44:31.786Z,16.70
2022-10-23T17:47:00.455Z,15.50
2022-10-23T17:49:29.178Z,15.87
2022-10-23T17:51:59.423Z,14.17
2022-10-23T17:54:29.104Z,17.27
2022-10-23T17:56:57.756Z,15.47
2022-10-23T17:59:26.472Z,16.60
2022-10-23T18:01:55.987Z,15.43
2022-10-23T18:04:27.477Z,15.50
2022-10-23T18:06:56.056Z,16.40
2022-10-23T18:09:26.191Z,16.37
2022-10-23T18:11:54.779Z,14.47
2022-10-23T18:14:26.126Z,16.77
2022-10-23T18:16:57.355Z,13.93
2022-10-23T18:19:26.076Z,16.20
2022-10-23T18:21:54.831Z,15.10
2022-10-23T18:24:23.627Z,16.50
2022-10-23T18:26:53.903Z,15.23
2022-10-23T18:29:22.846Z,18.03
2022-10-23T18:31:51.616Z,15.23
2022-10-23T18:34:22.516Z,19.52
2022-10-23T18:36:52.523Z,16.37
2022-10-23T18:39:27.391Z,17.90
2022-10-23T18:41:58.753Z,16.80
2022-10-23T18:44:29.480Z,17.00
2022-10-23T18:46:58.487Z,16.27
2022-10-23T18:49:27.924Z,19.43
2022-10-23T18:51:58.348Z,16.17
2022-10-23T18:54:27.180Z,14.83
2022-10-23T18:56:57.243Z,16.40
2022-10-23T18:59:26.131Z,17.97
2022-10-23T19:01:54.860Z,15.70
2022-10-23T19:04:23.592Z,17.60
2022-10-23T19:06:52.496Z,15.33
2022-10-23T19:09:21.364Z,14.60
2022-10-23T19:11:50.238Z,14.57
2022-10-23T19:14:20.271Z,15.47
2022-10-23T19:17:00.375Z,15.53
2022-10-23T19:19:31.658Z,15.87
2022-10-23T19:22:01.035Z,15.80
2022-10-23T19:24:36.036Z,15.63
2022-10-23T19:27:05.424Z,17.07
2022-10-23T19:29:37.849Z,16.57
2022-10-23T19:32:07.283Z,16.73
2022-10-23T19:34:36.136Z,17.67
2022-10-23T19:37:04.836Z,14.90
2022-10-23T19:39:33.626Z,17.27
2022-10-23T19:42:02.312Z,15.83
2022-10-23T19:44:31.148Z,16.77
2022-10-23T19:47:01.233Z,15.27
2022-10-23T19:49:29.890Z,16.83
2022-10-23T19:51:58.547Z,15.97
2022-10-23T19:54:27.273Z,16.93
2022-10-23T19:56:58.513Z,15.93
2022-10-23T19:59:27.178Z,16.90
2022-10-23T20:01:55.984Z,13.73
2022-10-23T20:04:26.113Z,16.00
2022-10-23T20:06:54.694Z,14.60
2022-10-23T20:09:23.954Z,15.77
2022-10-23T20:11:52.681Z,14.47
2022-10-23T20:14:21.445Z,16.30
2022-10-23T20:16:54.955Z,13.97
2022-10-23T20:19:26.057Z,15.50
2022-10-23T20:21:55.114Z,15.23
2022-10-23T20:24:23.934Z,15.67
2022-10-23T20:26:55.615Z,15.13
2022-10-23T20:29:25.854Z,17.13
2022-10-23T20:31:54.555Z,15.30
2022-10-23T20:34:23.198Z,16.17
2022-10-23T20:36:53.303Z,14.87
2022-10-23T20:39:25.633Z,16.27
2022-10-23T20:41:55.654Z,15.67
2022-10-23T20:44:25.224Z,15.87
2022-10-23T20:46:54.287Z,14.87
2022-10-23T20:49:23.408Z,16.67
2022-10-23T20:51:55.705Z,15.27
2022-10-23T20:54:26.907Z,15.10
2022-10-23T20:56:56.975Z,15.13
2022-10-23T20:59:26.020Z,14.23
2022-10-23T21:01:55.545Z,13.47
2022-10-23T21:04:27.765Z,14.73
2022-10-23T21:07:16.438Z,13.80
2022-10-23T21:09:45.993Z,13.90
2022-10-23T21:12:15.484Z,13.23
2022-10-23T21:14:44.279Z,13.70
2022-10-23T21:17:16.925Z,14.17
2022-10-23T21:19:45.940Z,13.20
2022-10-23T21:22:16.069Z,12.80
2022-10-23T21:24:45.487Z,13.47
2022-10-23T21:27:15.196Z,13.60
2022-10-23T21:29:47.881Z,13.73
2022-10-23T21:32:16.439Z,13.20
2022-10-23T21:34:48.536Z,13.20
2022-10-23T21:37:20.942Z,11.90
2022-10-23T21:39:49.494Z,12.20
2022-10-23T21:42:18.233Z,12.33
2022-10-23T21:44:47.015Z,14.90
2022-10-23T21:47:16.003Z,12.47
2022-10-23T21:49:45.422Z,12.67
2022-10-23T21:52:19.057Z,12.93
2022-10-23T21:54:52.912Z,11.10
2022-10-23T21:57:22.133Z,13.60
2022-10-23T21:59:50.744Z,12.23
2022-10-23T22:02:19.574Z,13.27
2022-10-23T22:04:48.216Z,13.07
2022-10-23T22:07:19.770Z,12.93
2022-10-23T22:09:48.399Z,12.13
2022-10-23T22:12:18.470Z,13.10
2022-10-23T22:14:47.206Z,13.23
2022-10-23T22:17:18.066Z,12.33
2022-10-23T22:19:46.651Z,13.47
2022-10-23T22:22:15.979Z,12.97
2022-10-23T22:24:45.300Z,11.97
2022-10-23T22:27:16.922Z,13.07
2022-10-23T22:29:49.733Z,11.87
2022-10-23T22:32:18.349Z,12.73
2022-10-23T22:34:52.674Z,12.70
2022-10-23T22:37:22.063Z,13.47
2022-10-23T22:39:51.957Z,12.57
2022-10-23T22:42:20.597Z,12.93
2022-10-23T22:44:50.511Z,12.47
2022-10-23T22:47:19.145Z,12.20
2022-10-23T22:49:47.689Z,13.27
2022-10-23T22:52:19.081Z,14.07
2022-10-23T22:54:49.023Z,13.47
2022-10-23T22:57:17.650Z,13.73
2022-10-23T22:59:46.205Z,12.40
2022-10-23T23:02:16.333Z,13.17
2022-10-23T23:04:45.473Z,11.90
2022-10-23T23:07:14.470Z,12.20
2022-10-23T23:09:44.373Z,13.03
2022-10-23T23:12:15.645Z,12.07
2022-10-23T23:14:44.543Z,11.97
2022-10-23T23:17:14.296Z,13.33
2022-10-23T23:19:44.676Z,11.73
2022-10-23T23:22:13.475Z,12.37
2022-10-23T23:24:42.104Z,13.77
2022-10-23T23:27:10.602Z,12.07
2022-10-23T23:29:39.250Z,13.60
2022-10-23T23:32:07.895Z,12.47
2022-10-23T23:34:36.491Z,13.97
2022-10-23T23:37:06.439Z,12.23
2022-10-23T23:39:35.068Z,13.40
2022-10-23T23:42:03.833Z,12.87
2022-10-23T23:44:32.544Z,13.80
2022-10-23T23:47:01.133Z,13.43
2022-10-23T23:49:29.685Z,13.90
2022-10-23T23:51:58.333Z,13.30
2022-10-23T23:54:28.527Z,13.20
2022-10-23T23:56:59.076Z,14.37
2022-10-23T23:59:27.955Z,14.03
